Aérodrome :
LOGIN :

S'inscrire | Disclaimer

   EN    FR    IT 

 










Légende :    VFR   VFR Marginal   IFR   IFR Intensif   IFR Très Intensif
Visi : 
Plafond : 
>= 8 km
>= 3000ft
5 à 8 km
1000 à 3000 ft
1500m à 5 km
500 à 1000 ft
800 à 1500m
200 à 500 ft
< 800m
< 200 ft
Symboles :   Orages  Brouillard  Fortes neiges  Fortes précipitations  Vent > 20 kt
SIGMETs :   Divers  Orages  Givrage  Turbulence  Onde Orograph.  Cendres Volcan.







- Altitude de l'aérodrome : 74 ft
- Code IATA : EIN


EHEH - Eindhoven

DERNIER METAR :
  • 211725Z AUTO 10006KT 060V140 9999 NCD 23/04 Q1013 BLU 11007KT CAVOK

METARs EXPIRÉS :
  • 211702Z AUTO 10006KT 070V170 9999 NCD 24/04 Q1013 BLU 11007KT CAVOK
  • 211625Z AUTO 10009KT 090V170 9999 NCD 24/03 Q1014 BLU 11010KT CAVOK
  • 211555Z AUTO 11010KT 090V170 9999 NCD 25/03 Q1014 BLU 11010KT CAVOK
  • 211525Z AUTO 11008KT 070V160 9999 NCD 25/03 Q1014 BLU 11010KT CAVOK
  • 211455Z AUTO 10010KT 050V160 9999 NCD 25/02 Q1014 BLU 11010KT CAVOK

TAF TAF EHEH
Valide du 21 à 12h jusqu'au 22 à 18h UTC


211155Z 2112/2218 11010KT CAVOK
BECMG 2118/2121 12006KT
BECMG 2209/2212 15010KT
BECMG 2216/2218 4000 SHRA FEW015 SCT030CB OVC050
Pas de NOTAMs connus pour ce terrain.



MET'MAP, la Météo Aéronautique d'un coup d'oeil ! - Copyright ORBIFLY Décembre 2007 - Disclaimer

ORBIFLY MET'MAP TEAM :

Programmation & Développement : Alexandra Zaïnal
Conception & Développement : Baudouin d'Aumeries
Co-Programmation & Développement : Marc-Olivier Méhu
Soutien technique & logistique : Manuel Goepfert

Contact : metmap@orbifly.com




SOURCES & CREDITS :

   NOAA